createdAt,value
2023-04-24T00:02:19.879Z,99381.03
2023-04-24T00:04:46.475Z,99377.69
2023-04-24T00:07:13.941Z,99369.94
2023-04-24T00:09:40.566Z,99369.16
2023-04-24T00:12:07.291Z,99365.03
2023-04-24T00:14:33.737Z,99358.16
2023-04-24T00:17:00.274Z,99362.63
2023-04-24T00:19:26.839Z,99367.84
2023-04-24T00:21:53.424Z,99364.44
2023-04-24T00:24:19.928Z,99363.63
2023-04-24T00:26:46.493Z,99363.84
2023-04-24T00:29:12.985Z,99362.22
2023-04-24T00:31:39.504Z,99357.75
2023-04-24T00:34:06.520Z,99353.69
2023-04-24T00:36:33.463Z,99357.28
2023-04-24T00:38:59.957Z,99371.16
2023-04-24T00:41:26.615Z,99366.78
2023-04-24T00:43:53.639Z,99352.84
2023-04-24T00:46:20.697Z,99365.00
2023-04-24T00:48:47.428Z,99354.59
2023-04-24T00:51:14.140Z,99354.59
2023-04-24T00:53:40.602Z,99363.38
2023-04-24T00:56:07.311Z,99354.75
2023-04-24T00:58:33.903Z,99353.94
2023-04-24T01:01:01.991Z,99355.75
2023-04-24T01:03:32.663Z,99361.13
2023-04-24T01:05:59.569Z,99357.66
2023-04-24T01:08:29.130Z,99353.38
2023-04-24T01:10:57.736Z,99357.91
2023-04-24T01:13:24.402Z,99357.06
2023-04-24T01:15:50.920Z,99362.41
2023-04-24T01:18:17.452Z,99359.91
2023-04-24T01:20:46.069Z,99369.66
2023-04-24T01:23:12.665Z,99365.44
2023-04-24T01:25:39.289Z,99362.28
2023-04-24T01:28:05.834Z,99364.28
2023-04-24T01:30:33.101Z,99373.34
2023-04-24T01:32:59.905Z,99374.50
2023-04-24T01:35:26.980Z,99378.47
2023-04-24T01:37:53.652Z,99376.09
2023-04-24T01:40:20.146Z,99376.28
2023-04-24T01:42:46.839Z,99385.19
2023-04-24T01:45:14.129Z,99387.91
2023-04-24T01:47:40.807Z,99383.59
2023-04-24T01:50:08.212Z,99376.94
2023-04-24T01:52:36.183Z,99374.31
2023-04-24T01:55:05.059Z,99370.94
2023-04-24T01:57:35.466Z,99380.56
2023-04-24T02:00:02.229Z,99380.50
2023-04-24T02:02:29.767Z,99380.81
2023-04-24T02:04:56.804Z,99381.69
2023-04-24T02:07:23.710Z,99372.19
2023-04-24T02:09:50.221Z,99372.13
2023-04-24T02:12:18.393Z,99372.06
2023-04-24T02:14:45.427Z,99375.44
2023-04-24T02:17:14.158Z,99371.13
2023-04-24T02:19:40.836Z,99378.84
2023-04-24T02:22:07.450Z,99370.34
2023-04-24T02:24:33.913Z,99370.38
2023-04-24T02:27:01.151Z,99375.50
2023-04-24T02:29:27.603Z,99368.53
2023-04-24T02:31:54.038Z,99367.63
2023-04-24T02:34:20.488Z,99377.03
2023-04-24T02:36:46.875Z,99377.09
2023-04-24T02:39:14.467Z,99372.78
2023-04-24T02:41:41.037Z,99374.59
2023-04-24T02:44:07.470Z,99376.38
2023-04-24T02:46:33.942Z,99373.69
2023-04-24T02:49:00.412Z,99379.75
2023-04-24T02:51:27.749Z,99381.38
2023-04-24T02:53:54.172Z,99377.84
2023-04-24T02:56:20.599Z,99389.03
2023-04-24T02:58:47.103Z,99383.75
2023-04-24T03:01:13.588Z,99381.97
2023-04-24T03:03:40.641Z,99392.38
2023-04-24T03:06:08.994Z,99395.81
2023-04-24T03:08:35.822Z,99395.81
2023-04-24T03:11:02.214Z,99395.03
2023-04-24T03:13:28.634Z,99383.69
2023-04-24T03:15:55.175Z,99398.41
2023-04-24T03:18:21.804Z,99395.03
2023-04-24T03:20:48.542Z,99398.50
2023-04-24T03:23:15.314Z,99404.44
2023-04-24T03:25:43.681Z,99413.25
2023-04-24T03:28:10.195Z,99406.25
2023-04-24T03:30:36.647Z,99405.50
2023-04-24T03:33:03.271Z,99410.63
2023-04-24T03:35:29.836Z,99408.75
2023-04-24T03:37:56.327Z,99406.00
2023-04-24T03:40:22.823Z,99414.84
2023-04-24T03:42:49.282Z,99414.78
2023-04-24T03:45:15.985Z,99411.25
2023-04-24T03:47:42.466Z,99418.28
2023-04-24T03:50:11.174Z,99407.84
2023-04-24T03:52:38.951Z,99408.69
2023-04-24T03:55:05.879Z,99407.91
2023-04-24T03:57:32.322Z,99407.84
2023-04-24T03:59:58.771Z,99412.22
2023-04-24T04:02:25.483Z,99415.75
2023-04-24T04:04:52.230Z,99410.56
2023-04-24T04:07:18.764Z,99408.94
2023-04-24T04:09:45.386Z,99407.19
2023-04-24T04:12:11.911Z,99416.91
2023-04-24T04:14:39.209Z,99412.66
2023-04-24T04:17:05.724Z,99413.59
2023-04-24T04:19:32.254Z,99417.91
2023-04-24T04:21:58.764Z,99421.41
2023-04-24T04:24:25.426Z,99424.06
2023-04-24T04:26:53.185Z,99423.19
2023-04-24T04:29:19.847Z,99422.34
2023-04-24T04:31:46.534Z,99425.78
2023-04-24T04:34:13.685Z,99435.28
2023-04-24T04:36:41.140Z,99427.56
2023-04-24T04:39:07.991Z,99436.31
2023-04-24T04:41:35.985Z,99433.84
2023-04-24T04:44:05.453Z,99432.94
2023-04-24T04:46:34.052Z,99435.69
2023-04-24T04:49:02.323Z,99433.91
2023-04-24T04:51:28.898Z,99436.44
2023-04-24T04:53:55.345Z,99442.53
2023-04-24T04:56:22.843Z,99446.13
2023-04-24T04:58:49.256Z,99440.06
2023-04-24T05:01:15.726Z,99448.66
2023-04-24T05:03:42.462Z,99441.88
2023-04-24T05:06:09.052Z,99440.59
2023-04-24T05:08:35.661Z,99448.56
2023-04-24T05:11:02.220Z,99450.41
2023-04-24T05:13:39.179Z,99446.13
2023-04-24T05:16:07.736Z,99442.50
2023-04-24T05:18:34.276Z,99445.91
2023-04-24T05:21:00.977Z,99437.94
2023-04-24T05:23:27.462Z,99446.69
2023-04-24T05:25:53.969Z,99458.03
2023-04-24T05:28:20.940Z,99448.44
2023-04-24T05:30:47.473Z,99451.78
2023-04-24T05:33:15.075Z,99455.19
2023-04-24T05:35:46.641Z,99458.81
2023-04-24T05:38:13.801Z,99456.47
2023-04-24T05:40:41.038Z,99459.22
2023-04-24T05:43:07.464Z,99463.81
2023-04-24T05:45:45.617Z,99458.59
2023-04-24T05:48:12.038Z,99457.81
2023-04-24T05:50:38.471Z,99463.16
2023-04-24T05:53:05.464Z,99471.97
2023-04-24T05:55:32.172Z,99465.75
2023-04-24T05:57:58.673Z,99466.63
2023-04-24T06:00:25.921Z,99468.47
2023-04-24T06:02:53.874Z,99464.00
2023-04-24T06:05:20.959Z,99464.84
2023-04-24T06:07:47.581Z,99464.91
2023-04-24T06:10:13.967Z,99463.22
2023-04-24T06:12:40.649Z,99461.34
2023-04-24T06:15:08.071Z,99464.75
2023-04-24T06:17:34.562Z,99465.56
2023-04-24T06:20:01.123Z,99461.22
2023-04-24T06:22:27.778Z,99457.03
2023-04-24T06:24:54.184Z,99470.13
2023-04-24T06:27:20.785Z,99460.69
2023-04-24T06:29:48.930Z,99476.31
2023-04-24T06:32:15.404Z,99464.13
2023-04-24T06:34:43.245Z,99462.50
2023-04-24T06:37:09.633Z,99464.31
2023-04-24T06:39:36.053Z,99468.84
2023-04-24T06:42:02.606Z,99467.16
2023-04-24T06:44:29.050Z,99472.97
2023-04-24T06:46:55.550Z,99465.28
2023-04-24T06:49:22.066Z,99462.78
2023-04-24T06:51:48.503Z,99474.44
2023-04-24T06:54:14.910Z,99468.19
2023-04-24T06:56:42.415Z,99462.13
2023-04-24T06:59:09.003Z,99472.44
2023-04-24T07:01:35.559Z,99472.31
2023-04-24T07:04:02.685Z,99471.53
2023-04-24T07:06:31.489Z,99477.09
2023-04-24T07:08:58.008Z,99469.44
2023-04-24T07:11:25.044Z,99480.72
2023-04-24T07:13:51.464Z,99466.78
2023-04-24T07:16:18.057Z,99475.78
2023-04-24T07:18:44.615Z,99473.31
2023-04-24T07:21:11.056Z,99477.03
2023-04-24T07:23:37.570Z,99468.03
2023-04-24T07:26:04.431Z,99471.72
2023-04-24T07:28:34.013Z,99478.53
2023-04-24T07:31:00.927Z,99478.78
2023-04-24T07:33:27.990Z,99476.19
2023-04-24T07:35:54.679Z,99491.06
2023-04-24T07:38:24.008Z,99481.47
2023-04-24T07:40:50.540Z,99487.84
2023-04-24T07:43:17.160Z,99491.47
2023-04-24T07:45:43.874Z,99502.72
2023-04-24T07:48:10.454Z,99507.53
2023-04-24T07:50:37.704Z,99508.53
2023-04-24T07:53:04.163Z,99529.78
2023-04-24T07:55:30.617Z,99530.94
2023-04-24T07:57:57.102Z,99526.00
2023-04-24T08:00:23.608Z,99531.16
2023-04-24T08:02:50.236Z,99534.03
2023-04-24T08:05:17.355Z,99529.72
2023-04-24T08:07:43.926Z,99518.16
2023-04-24T08:10:14.349Z,99522.97
2023-04-24T08:12:41.331Z,99517.00
2023-04-24T08:15:08.551Z,99519.66
2023-04-24T08:17:36.483Z,99550.81
2023-04-24T08:20:04.832Z,99546.59
2023-04-24T08:22:31.687Z,99550.09
2023-04-24T08:25:00.809Z,99556.69
2023-04-24T08:27:28.005Z,99559.38
2023-04-24T08:29:55.594Z,99588.13
2023-04-24T08:32:22.083Z,99591.56
2023-04-24T08:34:49.785Z,99589.06
2023-04-24T08:37:16.539Z,99587.94
2023-04-24T08:39:43.330Z,99586.94
2023-04-24T08:42:10.261Z,99579.94
2023-04-24T08:44:37.503Z,99592.00
2023-04-24T08:47:04.390Z,99585.00
2023-04-24T08:49:31.480Z,99594.22
2023-04-24T08:51:58.456Z,99596.03
2023-04-24T08:54:26.286Z,99597.53
2023-04-24T08:56:54.954Z,99599.09
2023-04-24T08:59:22.960Z,99597.22
2023-04-24T09:01:51.870Z,99608.34
2023-04-24T09:04:21.192Z,99611.84
2023-04-24T09:06:50.030Z,99631.03
2023-04-24T09:09:17.757Z,99633.75
2023-04-24T09:11:44.327Z,99640.66
2023-04-24T09:14:11.840Z,99658.09
2023-04-24T09:16:38.406Z,99667.66
2023-04-24T09:19:04.962Z,99680.69
2023-04-24T09:21:35.748Z,99683.25
2023-04-24T09:24:06.396Z,99708.56
2023-04-24T09:26:35.843Z,99697.25
2023-04-24T09:29:02.453Z,99715.53
2023-04-24T09:31:30.546Z,99703.31
2023-04-24T09:34:08.259Z,99720.84
2023-04-24T09:36:42.972Z,99716.47
2023-04-24T09:39:12.111Z,99732.06
2023-04-24T09:41:46.995Z,99736.47
2023-04-24T09:44:17.455Z,99738.13
2023-04-24T09:46:46.531Z,99749.38
2023-04-24T09:49:17.626Z,99756.31
2023-04-24T09:51:44.628Z,99743.25
2023-04-24T09:54:19.429Z,99757.97
2023-04-24T09:56:47.532Z,99757.88
2023-04-24T09:59:16.076Z,99772.81
2023-04-24T10:01:45.895Z,99772.66
2023-04-24T10:04:24.498Z,99775.03
2023-04-24T10:06:53.398Z,99788.03
2023-04-24T10:09:21.923Z,99796.03
2023-04-24T10:11:50.367Z,99795.84
2023-04-24T10:14:19.252Z,99794.09
2023-04-24T10:16:47.841Z,99798.28
2023-04-24T10:19:16.156Z,99797.28
2023-04-24T10:21:47.072Z,99807.84
2023-04-24T10:24:15.437Z,99806.88
2023-04-24T10:26:42.326Z,99806.94
2023-04-24T10:29:13.442Z,99799.81
2023-04-24T10:31:40.607Z,99815.44
2023-04-24T10:34:07.926Z,99809.44
2023-04-24T10:36:36.201Z,99830.38
2023-04-24T10:39:07.711Z,99820.09
2023-04-24T10:41:34.225Z,99825.13
2023-04-24T10:44:07.916Z,99827.91
2023-04-24T10:46:35.052Z,99846.84
2023-04-24T10:49:05.018Z,99843.75
2023-04-24T10:51:49.630Z,99838.63
2023-04-24T10:54:28.434Z,99850.03
2023-04-24T10:57:20.537Z,99857.00
2023-04-24T10:59:52.561Z,99861.44
2023-04-24T11:02:36.141Z,99870.84
2023-04-24T11:05:05.054Z,99864.69
2023-04-24T11:08:10.093Z,99882.75
2023-04-24T11:10:40.423Z,99875.53
2023-04-24T11:13:08.529Z,99873.31
2023-04-24T11:15:35.746Z,99878.09
2023-04-24T11:18:02.391Z,99874.09
2023-04-24T11:20:28.971Z,99882.94
2023-04-24T11:22:56.489Z,99890.00
2023-04-24T11:25:23.920Z,99904.03
2023-04-24T11:27:51.368Z,99913.03
2023-04-24T11:30:20.317Z,99914.19
2023-04-24T11:32:52.330Z,99917.03
2023-04-24T11:35:25.847Z,99929.16
2023-04-24T11:38:12.469Z,99925.56
2023-04-24T11:40:42.881Z,99925.50
2023-04-24T11:43:10.377Z,99935.03
2023-04-24T11:45:36.818Z,99940.84
2023-04-24T11:48:04.526Z,99941.44
2023-04-24T11:50:31.393Z,99941.28
2023-04-24T11:52:58.110Z,99950.75
2023-04-24T11:55:28.592Z,99958.59
2023-04-24T11:57:57.703Z,99950.75
2023-04-24T12:00:30.395Z,99955.09
2023-04-24T12:03:09.114Z,99952.59
2023-04-24T12:05:36.398Z,99944.75
2023-04-24T12:08:03.282Z,99956.25
2023-04-24T12:10:32.831Z,99965.81
2023-04-24T12:13:00.896Z,99959.78
2023-04-24T12:15:28.019Z,99961.47
2023-04-24T12:17:55.819Z,99969.09
2023-04-24T12:20:28.257Z,99976.75
2023-04-24T12:22:56.415Z,99975.69
2023-04-24T12:25:25.356Z,99982.44
2023-04-24T12:28:15.267Z,99985.81
2023-04-24T12:30:49.753Z,99986.63
2023-04-24T12:33:23.205Z,99982.88
2023-04-24T12:35:54.315Z,100002.53
2023-04-24T12:38:26.578Z,99997.44
2023-04-24T12:41:13.989Z,100003.28
2023-04-24T12:43:52.440Z,100009.44
2023-04-24T12:46:20.563Z,100012.00
2023-04-24T12:48:48.833Z,100015.59
2023-04-24T12:51:15.391Z,100013.84
2023-04-24T12:53:42.235Z,100006.00
2023-04-24T12:56:08.845Z,100030.63
2023-04-24T12:58:35.411Z,100009.66
2023-04-24T13:01:02.156Z,100030.06
2023-04-24T13:03:28.796Z,100018.81
2023-04-24T13:05:55.315Z,100023.28
2023-04-24T13:08:21.784Z,100012.88
2023-04-24T13:10:48.342Z,100025.28
2023-04-24T13:13:15.215Z,100033.91
2023-04-24T13:15:41.623Z,100028.56
2023-04-24T13:18:08.135Z,100020.56
2023-04-24T13:20:36.449Z,100026.56
2023-04-24T13:23:02.950Z,100026.19
2023-04-24T13:25:30.654Z,100027.72
2023-04-24T13:27:57.089Z,100034.50
2023-04-24T13:30:23.541Z,100034.69
2023-04-24T13:32:50.007Z,100034.75
2023-04-24T13:35:16.551Z,100028.53
2023-04-24T13:37:43.016Z,100039.66
2023-04-24T13:40:10.126Z,100047.41
2023-04-24T13:42:36.645Z,100036.19
2023-04-24T13:45:17.429Z,100032.97
2023-04-24T13:47:52.233Z,100037.31
2023-04-24T13:50:19.278Z,100040.63
2023-04-24T13:52:45.848Z,100041.63
2023-04-24T13:55:12.401Z,100038.63
2023-04-24T13:57:38.896Z,100029.25
2023-04-24T14:00:07.236Z,100042.28
2023-04-24T14:02:34.002Z,100033.69
2023-04-24T14:05:00.773Z,100057.22
2023-04-24T14:07:27.426Z,100037.13
2023-04-24T14:09:53.860Z,100038.00
2023-04-24T14:12:20.805Z,100055.47
2023-04-24T14:14:48.960Z,100038.88
2023-04-24T14:17:15.880Z,100048.47
2023-04-24T14:19:42.344Z,100039.09
2023-04-24T14:22:08.830Z,100062.78
2023-04-24T14:24:35.305Z,100054.81
2023-04-24T14:27:02.305Z,100067.72
2023-04-24T14:29:28.841Z,100050.28
2023-04-24T14:31:55.508Z,100056.41
2023-04-24T14:34:22.013Z,100057.34
2023-04-24T14:36:48.456Z,100068.66
2023-04-24T14:39:15.025Z,100064.31
2023-04-24T14:41:41.510Z,100048.28
2023-04-24T14:44:07.965Z,100059.34
2023-04-24T14:46:34.681Z,100048.88
2023-04-24T14:49:01.368Z,100051.44
2023-04-24T14:51:28.221Z,100064.50
2023-04-24T14:53:54.664Z,100046.91
2023-04-24T14:56:21.223Z,100053.81
2023-04-24T14:58:47.725Z,100054.56
2023-04-24T15:01:14.277Z,100055.25
2023-04-24T15:03:41.063Z,100058.53
2023-04-24T15:06:07.719Z,100063.78
2023-04-24T15:08:34.197Z,100076.81
2023-04-24T15:11:00.813Z,100055.06
2023-04-24T15:13:27.378Z,100071.56
2023-04-24T15:15:53.921Z,100064.69
2023-04-24T15:18:20.355Z,100060.16
2023-04-24T15:20:47.001Z,100063.72
2023-04-24T15:23:13.707Z,100047.34
2023-04-24T15:25:40.270Z,100060.94
2023-04-24T15:28:07.150Z,100065.44
2023-04-24T15:30:33.821Z,100063.41
2023-04-24T15:33:02.022Z,100071.25
2023-04-24T15:35:28.963Z,100074.78
2023-04-24T15:37:55.865Z,100094.63
2023-04-24T15:40:22.486Z,100067.28
2023-04-24T15:42:48.978Z,100067.84
2023-04-24T15:45:15.548Z,100056.97
2023-04-24T15:47:42.087Z,100063.78
2023-04-24T15:50:14.399Z,100061.28
2023-04-24T15:52:41.303Z,100060.84
2023-04-24T15:55:08.105Z,100063.91
2023-04-24T15:57:34.576Z,100076.16
2023-04-24T16:00:01.415Z,100055.72
2023-04-24T16:02:28.060Z,100064.41
2023-04-24T16:04:55.024Z,100065.69
2023-04-24T16:07:21.756Z,100063.44
2023-04-24T16:09:48.277Z,100069.09
2023-04-24T16:12:14.924Z,100073.72
2023-04-24T16:14:41.976Z,100079.28
2023-04-24T16:17:08.618Z,100079.22
2023-04-24T16:19:35.181Z,100068.59
2023-04-24T16:22:03.120Z,100065.44
2023-04-24T16:24:29.773Z,100083.66
2023-04-24T16:26:56.633Z,100081.94
2023-04-24T16:29:23.385Z,100073.19
2023-04-24T16:31:49.990Z,100064.13
2023-04-24T16:34:16.581Z,100076.88
2023-04-24T16:36:43.253Z,100084.81
2023-04-24T16:39:09.871Z,100078.72
2023-04-24T16:41:36.393Z,100085.19
2023-04-24T16:44:02.835Z,100088.84
2023-04-24T16:46:29.305Z,100085.56
2023-04-24T16:48:55.969Z,100092.50
2023-04-24T16:51:22.449Z,100088.34
2023-04-24T16:53:48.940Z,100085.78
2023-04-24T16:56:15.759Z,100095.50
2023-04-24T16:58:42.186Z,100099.34
2023-04-24T17:01:08.840Z,100090.34
2023-04-24T17:03:35.703Z,100113.09
2023-04-24T17:06:03.014Z,100100.91
2023-04-24T17:08:30.644Z,100111.16
2023-04-24T17:10:57.114Z,100104.06
2023-04-24T17:13:23.572Z,100107.31
2023-04-24T17:15:50.054Z,100100.13
2023-04-24T17:18:18.146Z,100102.63
2023-04-24T17:20:44.705Z,100116.78
2023-04-24T17:23:13.521Z,100104.09
2023-04-24T17:25:40.149Z,100110.47
2023-04-24T17:28:26.171Z,100104.38
2023-04-24T17:30:54.549Z,100127.34
2023-04-24T17:33:21.450Z,100120.69
2023-04-24T17:35:49.029Z,100117.34
2023-04-24T17:38:15.470Z,100120.09
2023-04-24T17:40:41.960Z,100107.03
2023-04-24T17:43:08.401Z,100116.72
2023-04-24T17:45:34.947Z,100115.97
2023-04-24T17:48:01.741Z,100119.50
2023-04-24T17:50:28.285Z,100121.34
2023-04-24T17:52:54.744Z,100122.34
2023-04-24T17:55:21.557Z,100117.16
2023-04-24T17:57:48.058Z,100130.31
2023-04-24T18:00:15.087Z,100134.75
2023-04-24T18:02:41.660Z,100128.81
2023-04-24T18:05:08.280Z,100128.94
2023-04-24T18:07:34.726Z,100131.69
2023-04-24T18:10:01.136Z,100133.63
2023-04-24T18:12:27.853Z,100132.81
2023-04-24T18:15:02.975Z,100140.84
2023-04-24T18:17:40.123Z,100147.94
2023-04-24T18:20:07.127Z,100151.53
2023-04-24T18:22:33.723Z,100149.91
2023-04-24T18:25:00.240Z,100150.84
2023-04-24T18:27:29.200Z,100145.75
2023-04-24T18:29:55.678Z,100152.84
2023-04-24T18:32:22.370Z,100168.59
2023-04-24T18:34:49.065Z,100159.91
2023-04-24T18:37:18.349Z,100162.50
2023-04-24T18:39:44.803Z,100154.69
2023-04-24T18:42:11.406Z,100161.78
2023-04-24T18:44:40.975Z,100170.53
2023-04-24T18:47:08.309Z,100166.16
2023-04-24T18:49:34.974Z,100178.34
2023-04-24T18:52:01.936Z,100176.72
2023-04-24T18:54:29.740Z,100175.84
2023-04-24T18:56:56.695Z,100174.88
2023-04-24T18:59:23.258Z,100184.56
2023-04-24T19:01:49.882Z,100188.94
2023-04-24T19:04:16.491Z,100192.47
2023-04-24T19:06:42.955Z,100188.09
2023-04-24T19:09:09.422Z,100192.47
2023-04-24T19:11:35.954Z,100194.22
2023-04-24T19:14:04.289Z,100194.25
2023-04-24T19:16:31.041Z,100201.25
2023-04-24T19:18:57.531Z,100195.19
2023-04-24T19:21:24.141Z,100199.56
2023-04-24T19:23:52.430Z,100212.59
2023-04-24T19:26:19.090Z,100204.81
2023-04-24T19:28:48.114Z,100208.31
2023-04-24T19:31:17.925Z,100210.06
2023-04-24T19:33:48.268Z,100214.47
2023-04-24T19:36:17.634Z,100216.25
2023-04-24T19:38:45.192Z,100206.75
2023-04-24T19:41:12.602Z,100211.16
2023-04-24T19:43:39.956Z,100202.50
2023-04-24T19:46:06.589Z,100216.47
2023-04-24T19:48:33.281Z,100213.00
2023-04-24T19:51:01.263Z,100206.09
2023-04-24T19:53:28.276Z,100215.75
2023-04-24T19:55:55.123Z,100209.69
2023-04-24T19:58:21.690Z,100207.13
2023-04-24T20:00:48.216Z,100210.63
2023-04-24T20:03:25.538Z,100219.34
2023-04-24T20:05:59.086Z,100213.34
2023-04-24T20:08:25.699Z,100218.56
2023-04-24T20:10:54.245Z,100217.72
2023-04-24T20:13:20.660Z,100221.25
2023-04-24T20:15:47.134Z,100216.09
2023-04-24T20:18:13.650Z,100211.81
2023-04-24T20:20:41.583Z,100217.09
2023-04-24T20:23:10.313Z,100223.19
2023-04-24T20:25:37.019Z,100215.41
2023-04-24T20:28:03.559Z,100216.31
2023-04-24T20:30:31.517Z,100211.16
2023-04-24T20:32:58.664Z,100216.34
2023-04-24T20:35:25.314Z,100209.50
2023-04-24T20:37:53.818Z,100215.59
2023-04-24T20:40:20.573Z,100213.91
2023-04-24T20:42:47.053Z,100219.19
2023-04-24T20:45:13.663Z,100222.69
2023-04-24T20:47:40.158Z,100219.25
2023-04-24T20:50:07.555Z,100217.56
2023-04-24T20:52:34.161Z,100217.59
2023-04-24T20:55:00.764Z,100226.31
2023-04-24T20:57:27.423Z,100222.88
2023-04-24T20:59:54.756Z,100229.91
2023-04-24T21:02:21.286Z,100213.41
2023-04-24T21:04:47.789Z,100212.56
2023-04-24T21:07:15.226Z,100215.16
2023-04-24T21:09:41.737Z,100222.13
2023-04-24T21:12:08.181Z,100216.94
2023-04-24T21:14:34.652Z,100221.34
2023-04-24T21:17:01.852Z,100213.50
2023-04-24T21:19:28.423Z,100214.44
2023-04-24T21:21:54.884Z,100219.69
2023-04-24T21:24:22.766Z,100217.09
2023-04-24T21:26:49.617Z,100217.13
2023-04-24T21:29:16.305Z,100211.13
2023-04-24T21:31:42.797Z,100216.34
2023-04-24T21:34:09.442Z,100219.81
2023-04-24T21:36:35.998Z,100213.75
2023-04-24T21:39:02.461Z,100224.19
2023-04-24T21:41:28.935Z,100224.31
2023-04-24T21:43:55.872Z,100226.91
2023-04-24T21:46:22.768Z,100227.81
2023-04-24T21:48:49.261Z,100234.81
2023-04-24T21:51:16.572Z,100236.59
2023-04-24T21:53:43.099Z,100232.25
2023-04-24T21:56:09.646Z,100223.63
2023-04-24T21:58:36.890Z,100230.63
2023-04-24T22:01:03.542Z,100227.19
2023-04-24T22:03:30.586Z,100222.84
2023-04-24T22:05:57.094Z,100219.44
2023-04-24T22:08:24.669Z,100225.59
2023-04-24T22:10:53.097Z,100223.91
2023-04-24T22:13:19.668Z,100226.53
2023-04-24T22:15:46.177Z,100223.94
2023-04-24T22:18:13.339Z,100214.50
2023-04-24T22:20:39.937Z,100226.63
2023-04-24T22:23:06.375Z,100223.19
2023-04-24T22:25:32.952Z,100230.19
2023-04-24T22:27:59.452Z,100226.72
2023-04-24T22:30:26.012Z,100227.63
2023-04-24T22:32:52.561Z,100225.03
2023-04-24T22:35:20.309Z,100224.25
2023-04-24T22:37:48.806Z,100226.00
2023-04-24T22:40:15.792Z,100226.84
2023-04-24T22:42:42.356Z,100222.50
2023-04-24T22:45:11.569Z,100217.31
2023-04-24T22:47:38.105Z,100213.03
2023-04-24T22:50:05.992Z,100220.88
2023-04-24T22:52:33.638Z,100213.94
2023-04-24T22:55:00.915Z,100219.19
2023-04-24T22:57:27.473Z,100219.22
2023-04-24T22:59:54.250Z,100217.50
2023-04-24T23:02:23.216Z,100215.75
2023-04-24T23:04:49.824Z,100220.13
2023-04-24T23:07:16.745Z,100216.66
2023-04-24T23:09:43.171Z,100214.03
2023-04-24T23:12:09.616Z,100216.66
2023-04-24T23:14:36.449Z,100225.41
2023-04-24T23:17:03.926Z,100220.19
2023-04-24T23:19:30.524Z,100221.09
2023-04-24T23:21:57.012Z,100228.03
2023-04-24T23:24:23.606Z,100224.56
2023-04-24T23:26:50.088Z,100223.72
2023-04-24T23:29:16.553Z,100220.28
2023-04-24T23:31:43.080Z,100235.88
2023-04-24T23:34:09.512Z,100228.91
2023-04-24T23:36:36.584Z,100222.81
2023-04-24T23:39:05.209Z,100228.91
2023-04-24T23:41:31.716Z,100217.66
2023-04-24T23:43:58.222Z,100218.50
2023-04-24T23:46:24.840Z,100224.59
2023-04-24T23:48:51.353Z,100218.53
2023-04-24T23:51:17.943Z,100232.41
2023-04-24T23:53:44.602Z,100222.84
2023-04-24T23:56:11.020Z,100225.47
2023-04-24T23:58:37.475Z,100229.75
